sensor_id;sensor_type;location;lat;lon;timestamp;pressure;altitude;pressure_sealevel;temperature;humidity
57288;BME280;43141;52.010;4.362;2022-08-05T00:02:01;101607.41;;;19.98;67.75
57288;BME280;43141;52.010;4.362;2022-08-05T00:04:26;101615.44;;;19.95;67.49
57288;BME280;43141;52.010;4.362;2022-08-05T00:06:52;101605.19;;;20.00;67.78
57288;BME280;43141;52.010;4.362;2022-08-05T00:09:17;101624.59;;;20.00;67.66
57288;BME280;43141;52.010;4.362;2022-08-05T00:11:42;101625.16;;;19.97;67.69
57288;BME280;43141;52.010;4.362;2022-08-05T00:14:08;101623.47;;;19.96;67.91
57288;BME280;43141;52.010;4.362;2022-08-05T00:16:33;101627.66;;;19.99;67.54
57288;BME280;43141;52.010;4.362;2022-08-05T00:18:58;101624.03;;;19.98;68.18
57288;BME280;43141;52.010;4.362;2022-08-05T00:21:24;101628.44;;;19.94;68.43
57288;BME280;43141;52.010;4.362;2022-08-05T00:23:49;101634.53;;;19.91;68.32
57288;BME280;43141;52.010;4.362;2022-08-05T00:26:15;101635.09;;;19.93;68.31
57288;BME280;43141;52.010;4.362;2022-08-05T00:28:41;101638.97;;;19.92;68.01
57288;BME280;43141;52.010;4.362;2022-08-05T00:31:06;101640.88;;;19.86;68.01
57288;BME280;43141;52.010;4.362;2022-08-05T00:33:32;101634.28;;;19.92;68.17
57288;BME280;43141;52.010;4.362;2022-08-05T00:35:58;101626.25;;;19.91;67.96
57288;BME280;43141;52.010;4.362;2022-08-05T00:38:24;101628.16;;;19.90;68.56
57288;BME280;43141;52.010;4.362;2022-08-05T00:40:51;101619.84;;;19.90;68.18
57288;BME280;43141;52.010;4.362;2022-08-05T00:43:17;101623.66;;;19.74;68.88
57288;BME280;43141;52.010;4.362;2022-08-05T00:45:43;101633.09;;;19.78;68.67
57288;BME280;43141;52.010;4.362;2022-08-05T00:48:12;101624.50;;;19.74;68.72
57288;BME280;43141;52.010;4.362;2022-08-05T00:50:43;101617.84;;;19.70;68.76
57288;BME280;43141;52.010;4.362;2022-08-05T00:53:10;101624.19;;;19.66;69.13
57288;BME280;43141;52.010;4.362;2022-08-05T00:55:36;101633.88;;;19.63;68.97
57288;BME280;43141;52.010;4.362;2022-08-05T00:58:01;101627.50;;;19.63;68.99
57288;BME280;43141;52.010;4.362;2022-08-05T01:00:27;101623.09;;;19.62;70.04
57288;BME280;43141;52.010;4.362;2022-08-05T01:02:55;101626.41;;;19.64;69.08
57288;BME280;43141;52.010;4.362;2022-08-05T01:05:21;101625.00;;;19.61;68.56
57288;BME280;43141;52.010;4.362;2022-08-05T01:07:47;101628.34;;;19.63;68.97
57288;BME280;43141;52.010;4.362;2022-08-05T01:10:13;101636.06;;;19.61;69.07
57288;BME280;43141;52.010;4.362;2022-08-05T01:12:42;101633.59;;;19.59;68.98
57288;BME280;43141;52.010;4.362;2022-08-05T01:15:13;101636.31;;;19.54;69.46
57288;BME280;43141;52.010;4.362;2022-08-05T01:17:46;101651.28;;;19.58;69.83
57288;BME280;43141;52.010;4.362;2022-08-05T01:20:19;101657.38;;;19.55;69.17
57288;BME280;43141;52.010;4.362;2022-08-05T01:25:56;101658.47;;;19.54;69.19
57288;BME280;43141;52.010;4.362;2022-08-05T01:28:51;101665.41;;;19.57;69.04
57288;BME280;43141;52.010;4.362;2022-08-05T01:31:24;101671.22;;;19.55;69.37
57288;BME280;43141;52.010;4.362;2022-08-05T01:34:16;101674.28;;;19.59;69.08
57288;BME280;43141;52.010;4.362;2022-08-05T01:37:31;101686.47;;;19.63;69.35
57288;BME280;43141;52.010;4.362;2022-08-05T01:39:56;101686.72;;;19.56;69.19
57288;BME280;43141;52.010;4.362;2022-08-05T01:42:25;101680.06;;;19.57;69.22
57288;BME280;43141;52.010;4.362;2022-08-05T01:44:51;101675.66;;;19.56;69.19
57288;BME280;43141;52.010;4.362;2022-08-05T01:47:23;101675.06;;;19.54;69.29
57288;BME280;43141;52.010;4.362;2022-08-05T01:49:51;101662.34;;;19.53;69.26
57288;BME280;43141;52.010;4.362;2022-08-05T01:52:18;101661.78;;;19.51;69.32
57288;BME280;43141;52.010;4.362;2022-08-05T01:54:56;101665.31;;;19.41;69.71
57288;BME280;43141;52.010;4.362;2022-08-05T01:57:34;101661.47;;;19.42;69.14
57288;BME280;43141;52.010;4.362;2022-08-05T02:00:05;101658.34;;;19.34;69.84
57288;BME280;43141;52.010;4.362;2022-08-05T02:02:33;101658.63;;;19.32;69.84
57288;BME280;43141;52.010;4.362;2022-08-05T02:05:04;101647.00;;;19.25;70.70
57288;BME280;43141;52.010;4.362;2022-08-05T02:07:31;101643.66;;;19.23;70.24
57288;BME280;43141;52.010;4.362;2022-08-05T02:09:58;101640.38;;;19.26;69.86
57288;BME280;43141;52.010;4.362;2022-08-05T02:12:26;101635.06;;;19.24;70.41
57288;BME280;43141;52.010;4.362;2022-08-05T02:17:32;101642.53;;;19.19;70.73
57288;BME280;43141;52.010;4.362;2022-08-05T02:20:03;101629.25;;;19.16;70.21
57288;BME280;43141;52.010;4.362;2022-08-05T02:22:38;101628.94;;;19.12;70.35
57288;BME280;43141;52.010;4.362;2022-08-05T02:25:07;101636.09;;;19.08;70.41
57288;BME280;43141;52.010;4.362;2022-08-05T02:27:41;101630.00;;;19.06;70.78
57288;BME280;43141;52.010;4.362;2022-08-05T02:30:12;101636.34;;;19.01;70.43
57288;BME280;43141;52.010;4.362;2022-08-05T02:32:39;101628.84;;;18.97;70.66
57288;BME280;43141;52.010;4.362;2022-08-05T02:35:09;101621.38;;;18.97;70.79
57288;BME280;43141;52.010;4.362;2022-08-05T02:37:37;101625.56;;;19.00;70.58
57288;BME280;43141;52.010;4.362;2022-08-05T02:40:04;101621.09;;;18.93;71.22
57288;BME280;43141;52.010;4.362;2022-08-05T02:42:32;101626.31;;;18.90;71.09
57288;BME280;43141;52.010;4.362;2022-08-05T02:44:59;101627.31;;;18.84;71.67
57288;BME280;43141;52.010;4.362;2022-08-05T02:47:26;101635.34;;;18.80;71.10
57288;BME280;43141;52.010;4.362;2022-08-05T02:49:54;101633.66;;;18.79;71.30
57288;BME280;43141;52.010;4.362;2022-08-05T02:52:23;101634.22;;;18.76;71.04
57288;BME280;43141;52.010;4.362;2022-08-05T02:54:55;101630.25;;;18.67;72.46
57288;BME280;43141;52.010;4.362;2022-08-05T02:57:22;101632.50;;;18.70;71.34
57288;BME280;43141;52.010;4.362;2022-08-05T02:59:49;101640.47;;;18.66;71.57
57288;BME280;43141;52.010;4.362;2022-08-05T03:02:16;101645.47;;;18.64;71.41
57288;BME280;43141;52.010;4.362;2022-08-05T03:04:46;101644.91;;;18.67;71.49
57288;BME280;43141;52.010;4.362;2022-08-05T03:07:15;101647.38;;;18.64;71.35
57288;BME280;43141;52.010;4.362;2022-08-05T03:09:42;101647.09;;;18.65;71.25
57288;BME280;43141;52.010;4.362;2022-08-05T03:12:09;101658.09;;;18.60;71.02
57288;BME280;43141;52.010;4.362;2022-08-05T03:14:52;101651.75;;;18.59;71.17
57288;BME280;43141;52.010;4.362;2022-08-05T03:17:17;101656.16;;;18.55;71.52
57288;BME280;43141;52.010;4.362;2022-08-05T03:19:43;101658.66;;;18.57;71.23
57288;BME280;43141;52.010;4.362;2022-08-05T03:22:08;101657.25;;;18.54;70.95
57288;BME280;43141;52.010;4.362;2022-08-05T03:24:34;101661.69;;;18.55;71.16
57288;BME280;43141;52.010;4.362;2022-08-05T03:26:59;101650.03;;;18.53;70.81
57288;BME280;43141;52.010;4.362;2022-08-05T03:29:25;101664.41;;;18.50;71.21
57288;BME280;43141;52.010;4.362;2022-08-05T03:31:50;101672.09;;;18.48;71.13
57288;BME280;43141;52.010;4.362;2022-08-05T03:34:16;101665.97;;;18.41;71.26
57288;BME280;43141;52.010;4.362;2022-08-05T03:36:43;101670.69;;;18.40;71.35
57288;BME280;43141;52.010;4.362;2022-08-05T03:39:08;101676.19;;;18.40;71.45
57288;BME280;43141;52.010;4.362;2022-08-05T03:41:33;101671.19;;;18.37;71.96
57288;BME280;43141;52.010;4.362;2022-08-05T03:43:59;101672.81;;;18.33;71.75
57288;BME280;43141;52.010;4.362;2022-08-05T03:46:24;101666.66;;;18.26;71.46
57288;BME280;43141;52.010;4.362;2022-08-05T03:48:49;101666.09;;;18.24;71.84
57288;BME280;43141;52.010;4.362;2022-08-05T03:51:16;101663.84;;;18.21;71.99
57288;BME280;43141;52.010;4.362;2022-08-05T03:53:59;101666.63;;;18.21;71.89
57288;BME280;43141;52.010;4.362;2022-08-05T03:56:31;101671.22;;;18.15;71.94
57288;BME280;43141;52.010;4.362;2022-08-05T03:58:59;101665.47;;;18.17;71.95
57288;BME280;43141;52.010;4.362;2022-08-05T04:01:27;101652.16;;;18.14;71.99
57288;BME280;43141;52.010;4.362;2022-08-05T04:03:57;101655.47;;;18.10;71.61
57288;BME280;43141;52.010;4.362;2022-08-05T04:06:25;101656.22;;;18.06;71.95
57288;BME280;43141;52.010;4.362;2022-08-05T04:08:51;101660.66;;;18.07;72.18
57288;BME280;43141;52.010;4.362;2022-08-05T04:11:17;101656.69;;;17.98;72.15
57288;BME280;43141;52.010;4.362;2022-08-05T04:13:43;101653.66;;;17.99;71.77
57288;BME280;43141;52.010;4.362;2022-08-05T04:16:10;101652.84;;;17.99;72.15
57288;BME280;43141;52.010;4.362;2022-08-05T04:18:37;101644.56;;;17.99;71.78
57288;BME280;43141;52.010;4.362;2022-08-05T04:21:05;101645.38;;;17.99;71.51
57288;BME280;43141;52.010;4.362;2022-08-05T04:23:31;101657.78;;;17.97;71.69
57288;BME280;43141;52.010;4.362;2022-08-05T04:25:58;101651.34;;;17.91;71.75
57288;BME280;43141;52.010;4.362;2022-08-05T04:28:24;101655.78;;;17.92;71.88
57288;BME280;43141;52.010;4.362;2022-08-05T04:30:49;101649.69;;;17.90;71.96
57288;BME280;43141;52.010;4.362;2022-08-05T04:33:14;101647.19;;;17.88;71.94
57288;BME280;43141;52.010;4.362;2022-08-05T04:35:41;101648.25;;;17.87;71.80
57288;BME280;43141;52.010;4.362;2022-08-05T04:38:07;101654.56;;;17.83;71.91
57288;BME280;43141;52.010;4.362;2022-08-05T04:40:34;101654.88;;;17.86;71.81
57288;BME280;43141;52.010;4.362;2022-08-05T04:43:00;101651.28;;;17.86;71.99
57288;BME280;43141;52.010;4.362;2022-08-05T04:45:26;101642.69;;;17.82;71.75
57288;BME280;43141;52.010;4.362;2022-08-05T04:47:51;101650.69;;;17.84;71.50
57288;BME280;43141;52.010;4.362;2022-08-05T04:50:17;101656.75;;;17.81;72.05
57288;BME280;43141;52.010;4.362;2022-08-05T04:52:43;101656.19;;;17.78;71.68
57288;BME280;43141;52.010;4.362;2022-08-05T04:55:09;101642.38;;;17.78;71.94
57288;BME280;43141;52.010;4.362;2022-08-05T04:57:34;101649.06;;;17.83;71.47
57288;BME280;43141;52.010;4.362;2022-08-05T05:00:00;101639.66;;;17.84;71.74
57288;BME280;43141;52.010;4.362;2022-08-05T05:02:25;101650.16;;;17.82;71.84
57288;BME280;43141;52.010;4.362;2022-08-05T05:04:53;101653.22;;;17.85;71.83
57288;BME280;43141;52.010;4.362;2022-08-05T05:07:19;101658.47;;;17.87;71.75
57288;BME280;43141;52.010;4.362;2022-08-05T05:09:44;101670.63;;;17.86;71.71
57288;BME280;43141;52.010;4.362;2022-08-05T05:12:10;101673.38;;;17.86;71.78
57288;BME280;43141;52.010;4.362;2022-08-05T05:14:35;101674.53;;;17.90;71.66
57288;BME280;43141;52.010;4.362;2022-08-05T05:17:00;101678.72;;;17.92;71.53
57288;BME280;43141;52.010;4.362;2022-08-05T05:19:29;101669.59;;;17.92;71.28
57288;BME280;43141;52.010;4.362;2022-08-05T05:21:54;101668.28;;;17.94;71.61
57288;BME280;43141;52.010;4.362;2022-08-05T05:24:20;101669.69;;;17.97;71.51
57288;BME280;43141;52.010;4.362;2022-08-05T05:26:45;101665.56;;;18.00;71.35
57288;BME280;43141;52.010;4.362;2022-08-05T05:29:12;101665.84;;;18.03;71.14
57288;BME280;43141;52.010;4.362;2022-08-05T05:31:37;101665.38;;;18.06;70.96
57288;BME280;43141;52.010;4.362;2022-08-05T05:34:02;101672.84;;;18.11;70.80
57288;BME280;43141;52.010;4.362;2022-08-05T05:36:28;101684.81;;;18.17;70.68
57288;BME280;43141;52.010;4.362;2022-08-05T05:38:54;101686.19;;;18.19;70.64
57288;BME280;43141;52.010;4.362;2022-08-05T05:41:21;101690.63;;;18.20;70.25
57288;BME280;43141;52.010;4.362;2022-08-05T05:43:46;101692.94;;;18.29;70.17
57288;BME280;43141;52.010;4.362;2022-08-05T05:46:12;101695.16;;;18.32;70.20
57288;BME280;43141;52.010;4.362;2022-08-05T05:48:37;101689.97;;;18.35;69.98
57288;BME280;43141;52.010;4.362;2022-08-05T05:51:02;101707.16;;;18.42;69.96
57288;BME280;43141;52.010;4.362;2022-08-05T05:53:28;101705.75;;;18.40;69.86
57288;BME280;43141;52.010;4.362;2022-08-05T05:55:53;101699.66;;;18.38;69.97
57288;BME280;43141;52.010;4.362;2022-08-05T05:58:18;101702.22;;;18.44;69.68
57288;BME280;43141;52.010;4.362;2022-08-05T06:00:44;101701.13;;;18.51;69.85
57288;BME280;43141;52.010;4.362;2022-08-05T06:03:09;101704.44;;;18.48;69.38
57288;BME280;43141;52.010;4.362;2022-08-05T06:05:34;101702.00;;;18.51;69.71
57288;BME280;43141;52.010;4.362;2022-08-05T06:08:00;101696.25;;;18.58;69.50
57288;BME280;43141;52.010;4.362;2022-08-05T06:10:25;101689.88;;;18.57;69.65
57288;BME280;43141;52.010;4.362;2022-08-05T06:12:50;101702.03;;;18.56;70.08
57288;BME280;43141;52.010;4.362;2022-08-05T06:15:16;101695.66;;;18.56;69.32
57288;BME280;43141;52.010;4.362;2022-08-05T06:17:41;101699.56;;;18.60;69.34
57288;BME280;43141;52.010;4.362;2022-08-05T06:20:06;101705.69;;;18.62;68.82
57288;BME280;43141;52.010;4.362;2022-08-05T06:22:33;101712.34;;;18.66;68.96
57288;BME280;43141;52.010;4.362;2022-08-05T06:24:59;101706.81;;;18.66;68.86
57288;BME280;43141;52.010;4.362;2022-08-05T06:27:25;101712.94;;;18.68;68.72
57288;BME280;43141;52.010;4.362;2022-08-05T06:29:50;101712.88;;;18.63;68.73
57288;BME280;43141;52.010;4.362;2022-08-05T06:32:15;101703.50;;;18.69;68.67
57288;BME280;43141;52.010;4.362;2022-08-05T06:34:41;101714.66;;;18.80;68.34
57288;BME280;43141;52.010;4.362;2022-08-05T06:37:07;101708.63;;;18.83;69.09
57288;BME280;43141;52.010;4.362;2022-08-05T06:39:32;101719.41;;;18.84;68.50
57288;BME280;43141;52.010;4.362;2022-08-05T06:41:58;101715.88;;;18.89;68.52
57288;BME280;43141;52.010;4.362;2022-08-05T06:44:27;101721.19;;;18.96;68.08
57288;BME280;43141;52.010;4.362;2022-08-05T06:46:54;101719.31;;;19.01;67.93
57288;BME280;43141;52.010;4.362;2022-08-05T06:49:20;101720.75;;;19.09;67.77
57288;BME280;43141;52.010;4.362;2022-08-05T06:51:46;101722.78;;;19.24;67.40
57288;BME280;43141;52.010;4.362;2022-08-05T06:54:11;101722.34;;;19.42;67.20
57288;BME280;43141;52.010;4.362;2022-08-05T06:56:37;101732.13;;;19.60;66.36
57288;BME280;43141;52.010;4.362;2022-08-05T06:59:03;101726.41;;;19.77;66.20
57288;BME280;43141;52.010;4.362;2022-08-05T07:01:29;101730.91;;;19.94;65.06
57288;BME280;43141;52.010;4.362;2022-08-05T07:03:55;101731.28;;;20.13;64.25
57288;BME280;43141;52.010;4.362;2022-08-05T07:06:20;101737.13;;;20.27;63.94
57288;BME280;43141;52.010;4.362;2022-08-05T07:08:47;101736.31;;;20.32;63.40
57288;BME280;43141;52.010;4.362;2022-08-05T07:11:12;101736.03;;;20.28;63.07
57288;BME280;43141;52.010;4.362;2022-08-05T07:13:37;101739.34;;;20.25;62.91
57288;BME280;43141;52.010;4.362;2022-08-05T07:16:21;101747.09;;;20.28;62.37
57288;BME280;43141;52.010;4.362;2022-08-05T07:19:05;101753.22;;;20.30;62.47
57288;BME280;43141;52.010;4.362;2022-08-05T07:21:31;101756.25;;;20.34;62.26
57288;BME280;43141;52.010;4.362;2022-08-05T07:23:56;101760.41;;;20.31;61.76
57288;BME280;43141;52.010;4.362;2022-08-05T07:26:22;101759.28;;;20.22;61.51
57288;BME280;43141;52.010;4.362;2022-08-05T07:28:48;101770.63;;;20.15;62.02
57288;BME280;43141;52.010;4.362;2022-08-05T07:31:14;101772.00;;;20.13;62.13
57288;BME280;43141;52.010;4.362;2022-08-05T07:33:40;101771.94;;;20.02;59.89
57288;BME280;43141;52.010;4.362;2022-08-05T07:36:06;101773.59;;;19.98;60.75
57288;BME280;43141;52.010;4.362;2022-08-05T07:38:32;101786.38;;;20.09;60.71
57288;BME280;43141;52.010;4.362;2022-08-05T07:40:59;101789.22;;;20.20;61.47
57288;BME280;43141;52.010;4.362;2022-08-05T07:43:25;101798.63;;;20.24;62.91
57288;BME280;43141;52.010;4.362;2022-08-05T07:45:50;101798.06;;;20.22;62.50
57288;BME280;43141;52.010;4.362;2022-08-05T07:48:16;101803.59;;;20.12;60.80
57288;BME280;43141;52.010;4.362;2022-08-05T07:50:41;101809.13;;;20.12;61.68
57288;BME280;43141;52.010;4.362;2022-08-05T07:53:06;101810.75;;;20.07;61.37
57288;BME280;43141;52.010;4.362;2022-08-05T07:55:32;101806.00;;;19.98;61.60
57288;BME280;43141;52.010;4.362;2022-08-05T07:57:57;101815.13;;;19.98;62.01
57288;BME280;43141;52.010;4.362;2022-08-05T08:00:22;101813.78;;;20.06;61.94
57288;BME280;43141;52.010;4.362;2022-08-05T08:02:49;101811.88;;;20.06;61.67
57288;BME280;43141;52.010;4.362;2022-08-05T08:05:14;101818.81;;;20.09;61.78
57288;BME280;43141;52.010;4.362;2022-08-05T08:07:40;101831.00;;;20.08;61.64
57288;BME280;43141;52.010;4.362;2022-08-05T08:10:05;101835.63;;;19.92;62.34
57288;BME280;43141;52.010;4.362;2022-08-05T08:12:31;101839.66;;;19.79;62.44
57288;BME280;43141;52.010;4.362;2022-08-05T08:14:56;101837.66;;;19.69;62.82
57288;BME280;43141;52.010;4.362;2022-08-05T08:17:22;101842.59;;;19.62;62.58
57288;BME280;43141;52.010;4.362;2022-08-05T08:19:47;101846.72;;;19.59;62.43
57288;BME280;43141;52.010;4.362;2022-08-05T08:22:13;101845.34;;;19.62;62.38
57288;BME280;43141;52.010;4.362;2022-08-05T08:24:38;101853.03;;;19.55;61.39
57288;BME280;43141;52.010;4.362;2022-08-05T08:27:04;101860.16;;;19.46;59.92
57288;BME280;43141;52.010;4.362;2022-08-05T08:29:30;101863.16;;;19.39;60.10
57288;BME280;43141;52.010;4.362;2022-08-05T08:31:56;101866.75;;;19.34;60.05
57288;BME280;43141;52.010;4.362;2022-08-05T08:34:22;101865.28;;;19.26;58.69
57288;BME280;43141;52.010;4.362;2022-08-05T08:36:55;101867.19;;;19.21;58.02
57288;BME280;43141;52.010;4.362;2022-08-05T08:39:20;101872.19;;;19.24;59.08
57288;BME280;43141;52.010;4.362;2022-08-05T08:41:50;101876.56;;;19.20;59.11
57288;BME280;43141;52.010;4.362;2022-08-05T08:44:22;101873.00;;;19.24;59.26
57288;BME280;43141;52.010;4.362;2022-08-05T08:46:49;101878.31;;;19.31;59.31
57288;BME280;43141;52.010;4.362;2022-08-05T08:49:15;101880.84;;;19.33;59.17
57288;BME280;43141;52.010;4.362;2022-08-05T08:51:48;101893.31;;;19.35;59.17
57288;BME280;43141;52.010;4.362;2022-08-05T08:54:21;101889.19;;;19.38;59.28
57288;BME280;43141;52.010;4.362;2022-08-05T08:56:46;101891.69;;;19.39;59.21
57288;BME280;43141;52.010;4.362;2022-08-05T08:59:11;101895.56;;;19.38;59.22
57288;BME280;43141;52.010;4.362;2022-08-05T09:01:37;101903.53;;;19.35;59.35
57288;BME280;43141;52.010;4.362;2022-08-05T09:04:03;101897.44;;;19.33;58.32
57288;BME280;43141;52.010;4.362;2022-08-05T09:06:29;101901.09;;;19.38;57.99
57288;BME280;43141;52.010;4.362;2022-08-05T09:08:55;101907.97;;;19.36;58.33
57288;BME280;43141;52.010;4.362;2022-08-05T09:11:22;101909.94;;;19.40;58.29
57288;BME280;43141;52.010;4.362;2022-08-05T09:13:48;101907.50;;;19.44;58.81
57288;BME280;43141;52.010;4.362;2022-08-05T09:16:14;101915.47;;;19.40;58.01
57288;BME280;43141;52.010;4.362;2022-08-05T09:18:39;101915.75;;;19.39;57.83
57288;BME280;43141;52.010;4.362;2022-08-05T09:21:05;101923.78;;;19.40;57.53
57288;BME280;43141;52.010;4.362;2022-08-05T09:23:30;101920.72;;;19.37;57.96
57288;BME280;43141;52.010;4.362;2022-08-05T09:26:09;101926.81;;;19.39;57.67
57288;BME280;43141;52.010;4.362;2022-08-05T09:28:37;101922.41;;;19.43;57.79
57288;BME280;43141;52.010;4.362;2022-08-05T09:31:07;101924.69;;;19.46;57.78
57288;BME280;43141;52.010;4.362;2022-08-05T09:33:49;101933.59;;;19.53;57.27
57288;BME280;43141;52.010;4.362;2022-08-05T09:36:18;101932.19;;;19.51;56.64
57288;BME280;43141;52.010;4.362;2022-08-05T09:39:04;101937.22;;;19.54;57.39
57288;BME280;43141;52.010;4.362;2022-08-05T09:41:31;101944.09;;;19.51;56.27
57288;BME280;43141;52.010;4.362;2022-08-05T09:43:56;101942.53;;;19.60;57.17
57288;BME280;43141;52.010;4.362;2022-08-05T09:46:29;101956.69;;;19.64;57.19
57288;BME280;43141;52.010;4.362;2022-08-05T09:48:58;101947.19;;;19.60;56.36
57288;BME280;43141;52.010;4.362;2022-08-05T09:51:37;101967.66;;;19.54;58.19
57288;BME280;43141;52.010;4.362;2022-08-05T09:54:06;101959.03;;;19.50;56.72
57288;BME280;43141;52.010;4.362;2022-08-05T09:56:36;101963.75;;;19.50;55.95
57288;BME280;43141;52.010;4.362;2022-08-05T09:59:06;101967.06;;;19.52;56.47
57288;BME280;43141;52.010;4.362;2022-08-05T10:01:35;101973.75;;;19.56;55.43
57288;BME280;43141;52.010;4.362;2022-08-05T10:04:05;101967.16;;;19.62;54.48
57288;BME280;43141;52.010;4.362;2022-08-05T10:06:36;101971.66;;;19.68;53.72
57288;BME280;43141;52.010;4.362;2022-08-05T10:09:11;101974.44;;;19.68;53.69
57288;BME280;43141;52.010;4.362;2022-08-05T10:11:39;101974.16;;;19.70;52.98
57288;BME280;43141;52.010;4.362;2022-08-05T10:16:55;101962.97;;;19.87;53.49
57288;BME280;43141;52.010;4.362;2022-08-05T10:19:35;101968.03;;;19.95;52.85
57288;BME280;43141;52.010;4.362;2022-08-05T10:22:01;101972.78;;;20.00;53.44
57288;BME280;43141;52.010;4.362;2022-08-05T10:24:26;101975.59;;;20.10;50.57
57288;BME280;43141;52.010;4.362;2022-08-05T10:26:52;101966.50;;;20.15;51.87
57288;BME280;43141;52.010;4.362;2022-08-05T10:29:20;101966.84;;;20.23;52.13
57288;BME280;43141;52.010;4.362;2022-08-05T10:31:46;101971.59;;;20.33;54.99
57288;BME280;43141;52.010;4.362;2022-08-05T10:34:12;101971.69;;;20.49;53.78
57288;BME280;43141;52.010;4.362;2022-08-05T10:36:38;101973.25;;;20.77;53.71
57288;BME280;43141;52.010;4.362;2022-08-05T10:39:38;101974.97;;;20.88;52.76
57288;BME280;43141;52.010;4.362;2022-08-05T10:42:07;101973.88;;;21.00;52.70
57288;BME280;43141;52.010;4.362;2022-08-05T10:44:37;101970.91;;;21.27;52.64
57288;BME280;43141;52.010;4.362;2022-08-05T10:47:11;101982.00;;;21.32;52.20
57288;BME280;43141;52.010;4.362;2022-08-05T10:52:48;101985.38;;;21.45;51.71
57288;BME280;43141;52.010;4.362;2022-08-05T10:55:24;101986.50;;;21.49;50.57
57288;BME280;43141;52.010;4.362;2022-08-05T10:58:09;101989.56;;;21.47;50.97
57288;BME280;43141;52.010;4.362;2022-08-05T11:00:35;101992.09;;;21.74;50.85
57288;BME280;43141;52.010;4.362;2022-08-05T11:05:33;101993.75;;;21.70;48.95
57288;BME280;43141;52.010;4.362;2022-08-05T11:08:00;102006.81;;;21.65;49.54
57288;BME280;43141;52.010;4.362;2022-08-05T11:10:28;102003.22;;;21.85;51.36
57288;BME280;43141;52.010;4.362;2022-08-05T11:12:54;102006.00;;;21.80;50.69
57288;BME280;43141;52.010;4.362;2022-08-05T11:23:14;102009.03;;;21.63;50.81
57288;BME280;43141;52.010;4.362;2022-08-05T11:26:03;102016.53;;;21.57;51.09
57288;BME280;43141;52.010;4.362;2022-08-05T11:28:39;102021.00;;;21.84;51.42
57288;BME280;43141;52.010;4.362;2022-08-05T11:36:11;102023.78;;;21.99;50.16
57288;BME280;43141;52.010;4.362;2022-08-05T11:41:26;102030.16;;;22.15;49.10
57288;BME280;43141;52.010;4.362;2022-08-05T11:46:28;102035.16;;;22.23;45.40
57288;BME280;43141;52.010;4.362;2022-08-05T11:49:10;102040.69;;;22.34;46.94
57288;BME280;43141;52.010;4.362;2022-08-05T11:51:46;102045.44;;;22.33;45.87
57288;BME280;43141;52.010;4.362;2022-08-05T11:54:19;102043.22;;;21.94;45.18
57288;BME280;43141;52.010;4.362;2022-08-05T11:56:50;102051.25;;;21.65;45.95
57288;BME280;43141;52.010;4.362;2022-08-05T11:59:21;102053.19;;;21.54;44.59
57288;BME280;43141;52.010;4.362;2022-08-05T12:04:22;102054.25;;;21.48;44.42
57288;BME280;43141;52.010;4.362;2022-08-05T12:06:49;102053.47;;;21.68;44.78
57288;BME280;43141;52.010;4.362;2022-08-05T12:09:24;102055.44;;;21.88;45.31
57288;BME280;43141;52.010;4.362;2022-08-05T12:11:53;102069.91;;;21.90;44.73
57288;BME280;43141;52.010;4.362;2022-08-05T12:14:18;102059.63;;;21.75;45.82
57288;BME280;43141;52.010;4.362;2022-08-05T12:16:45;102074.50;;;21.48;46.25
57288;BME280;43141;52.010;4.362;2022-08-05T12:19:11;102080.88;;;21.44;46.88
57288;BME280;43141;52.010;4.362;2022-08-05T12:21:48;102084.00;;;21.57;47.60
57288;BME280;43141;52.010;4.362;2022-08-05T12:24:16;102080.72;;;21.66;46.91
57288;BME280;43141;52.010;4.362;2022-08-05T12:26:46;102075.16;;;21.71;48.17
57288;BME280;43141;52.010;4.362;2022-08-05T12:29:17;102067.34;;;21.63;47.47
57288;BME280;43141;52.010;4.362;2022-08-05T12:31:57;102082.84;;;21.53;47.99
57288;BME280;43141;52.010;4.362;2022-08-05T12:34:31;102088.19;;;21.70;47.41
57288;BME280;43141;52.010;4.362;2022-08-05T12:37:01;102089.66;;;21.99;47.07
57288;BME280;43141;52.010;4.362;2022-08-05T12:39:35;102092.69;;;22.23;47.85
57288;BME280;43141;52.010;4.362;2022-08-05T12:42:02;102103.53;;;22.24;47.11
57288;BME280;43141;52.010;4.362;2022-08-05T12:44:32;102093.28;;;22.20;46.14
57288;BME280;43141;52.010;4.362;2022-08-05T12:46:57;102106.59;;;22.23;46.31
57288;BME280;43141;52.010;4.362;2022-08-05T12:49:23;102109.41;;;22.38;46.09
57288;BME280;43141;52.010;4.362;2022-08-05T12:51:49;102114.13;;;22.17;45.31
57288;BME280;43141;52.010;4.362;2022-08-05T12:54:26;102118.00;;;22.27;46.70
57288;BME280;43141;52.010;4.362;2022-08-05T12:57:11;102119.97;;;22.62;47.09
57288;BME280;43141;52.010;4.362;2022-08-05T12:59:44;102119.97;;;22.52;46.52
57288;BME280;43141;52.010;4.362;2022-08-05T13:02:26;102120.78;;;22.63;46.88
57288;BME280;43141;52.010;4.362;2022-08-05T13:04:52;102125.25;;;22.43;46.43
57288;BME280;43141;52.010;4.362;2022-08-05T13:07:19;102123.84;;;22.25;46.40
57288;BME280;43141;52.010;4.362;2022-08-05T13:12:19;102131.59;;;22.90;45.84
57288;BME280;43141;52.010;4.362;2022-08-05T13:14:48;102139.72;;;22.71;45.79
57288;BME280;43141;52.010;4.362;2022-08-05T13:17:23;102131.63;;;22.28;48.45
57288;BME280;43141;52.010;4.362;2022-08-05T13:20:23;102140.53;;;22.20;49.52
57288;BME280;43141;52.010;4.362;2022-08-05T13:22:46;102147.22;;;22.34;50.34
57288;BME280;43141;52.010;4.362;2022-08-05T13:25:14;102144.97;;;22.31;50.35
57288;BME280;43141;52.010;4.362;2022-08-05T13:27:46;102153.84;;;22.18;51.25
57288;BME280;43141;52.010;4.362;2022-08-05T13:30:13;102157.69;;;21.86;50.41
57288;BME280;43141;52.010;4.362;2022-08-05T13:32:40;102163.22;;;21.75;51.06
57288;BME280;43141;52.010;4.362;2022-08-05T13:35:08;102169.38;;;21.83;51.67